sensor_id;sensor_type;location;lat;lon;timestamp;pressure;altitude;pressure_sealevel;temperature;humidity
74675;BME280;63200;48.810;12.352;2023-02-13T00:01:14;99489.22;;;-0.95;82.27
74675;BME280;63200;48.810;12.352;2023-02-13T00:03:40;99488.41;;;-0.87;82.34
74675;BME280;63200;48.810;12.352;2023-02-13T00:06:05;99525.00;;;-0.63;81.97
74675;BME280;63200;48.810;12.352;2023-02-13T00:08:30;99519.28;;;-0.76;82.25
74675;BME280;63200;48.810;12.352;2023-02-13T00:10:56;99516.81;;;-0.70;82.24
74675;BME280;63200;48.810;12.352;2023-02-13T00:13:21;99518.97;;;-0.65;82.14
74675;BME280;63200;48.810;12.352;2023-02-13T00:16:00;99501.78;;;-0.71;82.31
74675;BME280;63200;48.810;12.352;2023-02-13T00:18:27;99512.31;;;-0.69;82.45
74675;BME280;63200;48.810;12.352;2023-02-13T00:20:58;99480.44;;;-0.79;82.49
74675;BME280;63200;48.810;12.352;2023-02-13T00:23:23;99505.34;;;-0.54;82.60
74675;BME280;63200;48.810;12.352;2023-02-13T00:25:48;99498.19;;;-0.53;82.66
74675;BME280;63200;48.810;12.352;2023-02-13T00:28:14;99498.84;;;-0.59;82.68
74675;BME280;63200;48.810;12.352;2023-02-13T00:30:39;99479.31;;;-0.68;82.92
74675;BME280;63200;48.810;12.352;2023-02-13T00:33:04;99471.97;;;-0.66;82.51
74675;BME280;63200;48.810;12.352;2023-02-13T00:35:29;99495.16;;;-0.58;82.67
74675;BME280;63200;48.810;12.352;2023-02-13T00:37:56;99447.56;;;-0.88;82.81
74675;BME280;63200;48.810;12.352;2023-02-13T00:40:21;99508.38;;;-0.48;82.79
74675;BME280;63200;48.810;12.352;2023-02-13T00:42:46;99515.88;;;-0.44;83.20
74675;BME280;63200;48.810;12.352;2023-02-13T00:45:12;99477.97;;;-0.72;82.68
74675;BME280;63200;48.810;12.352;2023-02-13T00:47:37;99489.63;;;-0.65;83.09
74675;BME280;63200;48.810;12.352;2023-02-13T00:50:02;99520.75;;;-0.39;82.66
74675;BME280;63200;48.810;12.352;2023-02-13T00:52:28;99523.94;;;-0.36;82.85
74675;BME280;63200;48.810;12.352;2023-02-13T00:54:53;99522.09;;;-0.35;82.82
74675;BME280;63200;48.810;12.352;2023-02-13T00:57:19;99467.97;;;-0.70;82.68
74675;BME280;63200;48.810;12.352;2023-02-13T00:59:44;99529.75;;;-0.32;82.78
74675;BME280;63200;48.810;12.352;2023-02-13T01:02:09;99524.94;;;-0.28;82.60
74675;BME280;63200;48.810;12.352;2023-02-13T01:04:34;99528.13;;;-0.25;82.71
74675;BME280;63200;48.810;12.352;2023-02-13T01:07:00;99537.81;;;-0.24;82.54
74675;BME280;63200;48.810;12.352;2023-02-13T01:09:25;99537.94;;;-0.25;82.50
74675;BME280;63200;48.810;12.352;2023-02-13T01:11:50;99508.91;;;-0.37;82.45
74675;BME280;63200;48.810;12.352;2023-02-13T01:14:16;99507.72;;;-0.42;82.45
74675;BME280;63200;48.810;12.352;2023-02-13T01:16:41;99508.06;;;-0.37;82.63
74675;BME280;63200;48.810;12.352;2023-02-13T01:19:06;99529.78;;;-0.24;82.28
74675;BME280;63200;48.810;12.352;2023-02-13T01:21:32;99530.44;;;-0.22;82.44
74675;BME280;63200;48.810;12.352;2023-02-13T01:23:57;99524.44;;;-0.24;82.57
74675;BME280;63200;48.810;12.352;2023-02-13T01:26:23;99534.28;;;-0.16;82.41
74675;BME280;63200;48.810;12.352;2023-02-13T01:28:53;99530.44;;;-0.22;82.51
74675;BME280;63200;48.810;12.352;2023-02-13T01:31:19;99539.63;;;-0.24;82.65
74675;BME280;63200;48.810;12.352;2023-02-13T01:33:45;99527.94;;;-0.23;82.68
74675;BME280;63200;48.810;12.352;2023-02-13T01:36:11;99504.22;;;-0.35;82.51
74675;BME280;63200;48.810;12.352;2023-02-13T01:38:38;99521.78;;;-0.24;82.83
74675;BME280;63200;48.810;12.352;2023-02-13T01:41:04;99464.00;;;-0.58;82.68
74675;BME280;63200;48.810;12.352;2023-02-13T01:46:18;99512.56;;;-0.29;82.30
74675;BME280;63200;48.810;12.352;2023-02-13T01:48:45;99512.56;;;-0.38;82.51
74675;BME280;63200;48.810;12.352;2023-02-13T01:51:17;99509.91;;;-0.38;82.60
74675;BME280;63200;48.810;12.352;2023-02-13T01:53:57;99521.56;;;-0.39;82.74
74675;BME280;63200;48.810;12.352;2023-02-13T01:56:37;99514.91;;;-0.35;82.65
74675;BME280;63200;48.810;12.352;2023-02-13T01:59:09;99511.03;;;-0.48;82.48
74675;BME280;63200;48.810;12.352;2023-02-13T02:01:36;99510.72;;;-0.45;82.44
74675;BME280;63200;48.810;12.352;2023-02-13T02:04:17;99506.41;;;-0.38;82.90
74675;BME280;63200;48.810;12.352;2023-02-13T02:06:55;99506.88;;;-0.51;82.66
74675;BME280;63200;48.810;12.352;2023-02-13T02:09:25;99446.41;;;-0.85;82.90
74675;BME280;63200;48.810;12.352;2023-02-13T02:12:20;99503.88;;;-0.48;82.86
74675;BME280;63200;48.810;12.352;2023-02-13T02:14:46;99496.66;;;-0.56;82.93
74675;BME280;63200;48.810;12.352;2023-02-13T02:17:13;99495.84;;;-0.56;83.19
74675;BME280;63200;48.810;12.352;2023-02-13T02:28:14;99465.78;;;-0.67;82.99
74675;BME280;63200;48.810;12.352;2023-02-13T02:31:22;99413.84;;;-1.13;82.78
74675;BME280;63200;48.810;12.352;2023-02-13T02:34:13;99482.97;;;-0.69;82.55
74675;BME280;63200;48.810;12.352;2023-02-13T02:45:04;99479.91;;;-0.82;82.84
74675;BME280;63200;48.810;12.352;2023-02-13T02:47:43;99420.03;;;-1.39;82.76
74675;BME280;63200;48.810;12.352;2023-02-13T02:53:14;99478.75;;;-0.88;83.06
74675;BME280;63200;48.810;12.352;2023-02-13T02:58:37;99455.00;;;-1.08;82.99
74675;BME280;63200;48.810;12.352;2023-02-13T03:01:26;99426.06;;;-1.37;82.92
74675;BME280;63200;48.810;12.352;2023-02-13T03:04:33;99483.72;;;-0.93;82.82
74675;BME280;63200;48.810;12.352;2023-02-13T03:07:19;99480.56;;;-0.89;82.96
74675;BME280;63200;48.810;12.352;2023-02-13T03:09:47;99478.41;;;-0.85;82.73
74675;BME280;63200;48.810;12.352;2023-02-13T03:12:40;99454.84;;;-1.06;82.65
74675;BME280;63200;48.810;12.352;2023-02-13T03:15:27;99470.91;;;-0.90;82.81
74675;BME280;63200;48.810;12.352;2023-02-13T03:17:54;99450.19;;;-1.04;82.81
74675;BME280;63200;48.810;12.352;2023-02-13T03:21:18;99479.44;;;-0.78;82.53
74675;BME280;63200;48.810;12.352;2023-02-13T03:24:03;99475.09;;;-0.87;82.41
74675;BME280;63200;48.810;12.352;2023-02-13T03:29:20;99484.53;;;-0.93;82.92
74675;BME280;63200;48.810;12.352;2023-02-13T03:32:20;99479.22;;;-0.93;82.66
74675;BME280;63200;48.810;12.352;2023-02-13T03:34:55;99441.75;;;-1.26;82.57
74675;BME280;63200;48.810;12.352;2023-02-13T03:37:47;99482.72;;;-0.92;82.88
74675;BME280;63200;48.810;12.352;2023-02-13T03:40:27;99486.38;;;-0.93;82.74
74675;BME280;63200;48.810;12.352;2023-02-13T03:43:10;99485.22;;;-0.91;82.76
74675;BME280;63200;48.810;12.352;2023-02-13T03:45:41;99482.72;;;-0.92;82.35
74675;BME280;63200;48.810;12.352;2023-02-13T03:48:38;99484.66;;;-1.11;82.59
74675;BME280;63200;48.810;12.352;2023-02-13T03:51:37;99489.84;;;-1.01;82.90
74675;BME280;63200;48.810;12.352;2023-02-13T03:54:14;99459.78;;;-1.20;82.93
74675;BME280;63200;48.810;12.352;2023-02-13T03:56:42;99436.72;;;-1.37;83.26
74675;BME280;63200;48.810;12.352;2023-02-13T03:59:29;99483.66;;;-1.10;82.97
74675;BME280;63200;48.810;12.352;2023-02-13T04:02:10;99457.75;;;-1.26;83.05
74675;BME280;63200;48.810;12.352;2023-02-13T04:04:51;99474.75;;;-1.27;83.11
74675;BME280;63200;48.810;12.352;2023-02-13T04:07:20;99473.78;;;-1.18;82.94
74675;BME280;63200;48.810;12.352;2023-02-13T04:09:59;99496.84;;;-1.00;83.15
74675;BME280;63200;48.810;12.352;2023-02-13T04:12:49;99497.84;;;-1.01;83.02
74675;BME280;63200;48.810;12.352;2023-02-13T04:17:54;99456.34;;;-1.38;82.52
74675;BME280;63200;48.810;12.352;2023-02-13T04:20:20;99429.16;;;-1.76;82.46
74675;BME280;63200;48.810;12.352;2023-02-13T04:22:47;99487.91;;;-1.52;82.66
74675;BME280;63200;48.810;12.352;2023-02-13T04:25:14;99478.72;;;-1.57;82.38
74675;BME280;63200;48.810;12.352;2023-02-13T04:27:41;99493.94;;;-1.49;82.34
74675;BME280;63200;48.810;12.352;2023-02-13T04:30:07;99472.13;;;-1.71;82.11
74675;BME280;63200;48.810;12.352;2023-02-13T04:32:33;99478.41;;;-1.54;82.07
74675;BME280;63200;48.810;12.352;2023-02-13T04:34:58;99491.97;;;-1.65;82.06
74675;BME280;63200;48.810;12.352;2023-02-13T04:37:24;99428.75;;;-1.90;81.56
74675;BME280;63200;48.810;12.352;2023-02-13T04:39:49;99480.16;;;-1.63;81.78
74675;BME280;63200;48.810;12.352;2023-02-13T04:42:14;99461.44;;;-1.79;81.75
74675;BME280;63200;48.810;12.352;2023-02-13T04:44:39;99430.16;;;-2.04;81.43
74675;BME280;63200;48.810;12.352;2023-02-13T04:47:05;99482.41;;;-1.76;82.14
74675;BME280;63200;48.810;12.352;2023-02-13T04:49:30;99464.34;;;-1.91;82.13
74675;BME280;63200;48.810;12.352;2023-02-13T04:51:55;99484.50;;;-1.62;82.06
74675;BME280;63200;48.810;12.352;2023-02-13T04:54:21;99460.13;;;-1.75;82.22
74675;BME280;63200;48.810;12.352;2023-02-13T04:56:46;99485.25;;;-1.52;81.98
74675;BME280;63200;48.810;12.352;2023-02-13T04:59:11;99438.25;;;-1.87;82.11
74675;BME280;63200;48.810;12.352;2023-02-13T05:01:36;99447.59;;;-1.83;81.98
74675;BME280;63200;48.810;12.352;2023-02-13T05:04:02;99471.00;;;-1.69;82.52
74675;BME280;63200;48.810;12.352;2023-02-13T05:06:27;99486.44;;;-1.72;82.42
74675;BME280;63200;48.810;12.352;2023-02-13T05:08:52;99445.19;;;-1.94;82.49
74675;BME280;63200;48.810;12.352;2023-02-13T05:11:18;99491.88;;;-1.82;82.88
74675;BME280;63200;48.810;12.352;2023-02-13T05:13:43;99472.47;;;-1.92;82.72
74675;BME280;63200;48.810;12.352;2023-02-13T05:16:08;99455.91;;;-2.04;83.29
74675;BME280;63200;48.810;12.352;2023-02-13T05:18:33;99424.84;;;-2.22;83.39
74675;BME280;63200;48.810;12.352;2023-02-13T05:20:59;99501.47;;;-1.63;83.27
74675;BME280;63200;48.810;12.352;2023-02-13T05:23:42;99436.88;;;-1.91;82.93
74675;BME280;63200;48.810;12.352;2023-02-13T05:26:08;99500.66;;;-1.63;83.34
74675;BME280;63200;48.810;12.352;2023-02-13T05:28:33;99470.44;;;-1.98;83.26
74675;BME280;63200;48.810;12.352;2023-02-13T05:31:17;99450.91;;;-2.07;83.23
74675;BME280;63200;48.810;12.352;2023-02-13T05:33:42;99469.50;;;-1.89;83.76
74675;BME280;63200;48.810;12.352;2023-02-13T05:36:07;99489.56;;;-1.77;83.75
74675;BME280;63200;48.810;12.352;2023-02-13T05:38:33;99486.47;;;-1.90;83.79
74675;BME280;63200;48.810;12.352;2023-02-13T05:40:59;99483.66;;;-1.89;84.41
74675;BME280;63200;48.810;12.352;2023-02-13T05:43:25;99488.28;;;-1.91;84.37
74675;BME280;63200;48.810;12.352;2023-02-13T05:45:50;99422.78;;;-2.28;84.68
74675;BME280;63200;48.810;12.352;2023-02-13T05:48:16;99493.53;;;-1.81;84.49
74675;BME280;63200;48.810;12.352;2023-02-13T05:50:41;99444.97;;;-2.01;84.83
74675;BME280;63200;48.810;12.352;2023-02-13T05:53:07;99500.81;;;-1.65;84.72
74675;BME280;63200;48.810;12.352;2023-02-13T05:55:32;99457.03;;;-1.89;84.48
74675;BME280;63200;48.810;12.352;2023-02-13T05:57:57;99460.75;;;-1.81;84.83
74675;BME280;63200;48.810;12.352;2023-02-13T06:00:23;99503.47;;;-1.65;84.71
74675;BME280;63200;48.810;12.352;2023-02-13T06:02:49;99512.78;;;-1.69;84.69
74675;BME280;63200;48.810;12.352;2023-02-13T06:05:15;99467.09;;;-2.01;84.47
74675;BME280;63200;48.810;12.352;2023-02-13T06:07:40;99520.28;;;-1.64;84.50
74675;BME280;63200;48.810;12.352;2023-02-13T06:10:06;99515.06;;;-1.74;85.00
74675;BME280;63200;48.810;12.352;2023-02-13T06:12:31;99497.19;;;-1.82;84.53
74675;BME280;63200;48.810;12.352;2023-02-13T06:14:56;99531.25;;;-1.68;84.58
74675;BME280;63200;48.810;12.352;2023-02-13T06:17:22;99534.88;;;-1.51;84.77
74675;BME280;63200;48.810;12.352;2023-02-13T06:19:47;99536.69;;;-1.51;85.06
74675;BME280;63200;48.810;12.352;2023-02-13T06:22:12;99534.50;;;-1.56;84.96
74675;BME280;63200;48.810;12.352;2023-02-13T06:24:38;99525.78;;;-1.66;84.87
74675;BME280;63200;48.810;12.352;2023-02-13T06:27:03;99538.38;;;-1.50;84.87
74675;BME280;63200;48.810;12.352;2023-02-13T06:29:28;99489.66;;;-1.87;84.83
74675;BME280;63200;48.810;12.352;2023-02-13T06:31:55;99541.97;;;-1.59;85.05
74675;BME280;63200;48.810;12.352;2023-02-13T06:34:21;99469.91;;;-2.02;84.72
74675;BME280;63200;48.810;12.352;2023-02-13T06:36:46;99503.72;;;-1.76;85.21
74675;BME280;63200;48.810;12.352;2023-02-13T06:39:12;99563.75;;;-1.38;84.91
74675;BME280;63200;48.810;12.352;2023-02-13T06:41:37;99554.31;;;-1.58;84.56
74675;BME280;63200;48.810;12.352;2023-02-13T06:44:02;99508.94;;;-1.93;84.98
74675;BME280;63200;48.810;12.352;2023-02-13T06:46:27;99538.81;;;-1.81;84.87
74675;BME280;63200;48.810;12.352;2023-02-13T06:48:53;99568.22;;;-1.64;84.96
74675;BME280;63200;48.810;12.352;2023-02-13T06:51:18;99574.06;;;-1.43;85.01
74675;BME280;63200;48.810;12.352;2023-02-13T06:53:43;99502.63;;;-1.92;85.00
74675;BME280;63200;48.810;12.352;2023-02-13T06:56:09;99553.94;;;-1.63;84.77
74675;BME280;63200;48.810;12.352;2023-02-13T06:58:35;99574.16;;;-1.53;84.93
74675;BME280;63200;48.810;12.352;2023-02-13T07:01:00;99584.97;;;-1.54;85.07
74675;BME280;63200;48.810;12.352;2023-02-13T07:03:26;99574.22;;;-1.44;84.79
74675;BME280;63200;48.810;12.352;2023-02-13T07:05:51;99546.63;;;-1.61;85.04
74675;BME280;63200;48.810;12.352;2023-02-13T07:08:17;99587.81;;;-1.29;84.96
74675;BME280;63200;48.810;12.352;2023-02-13T07:10:42;99588.59;;;-1.37;84.89
74675;BME280;63200;48.810;12.352;2023-02-13T07:13:08;99583.59;;;-1.40;85.02
74675;BME280;63200;48.810;12.352;2023-02-13T07:15:35;99573.31;;;-1.53;84.86
74675;BME280;63200;48.810;12.352;2023-02-13T07:18:01;99526.25;;;-1.71;84.86
74675;BME280;63200;48.810;12.352;2023-02-13T07:20:27;99578.91;;;-1.20;85.11
74675;BME280;63200;48.810;12.352;2023-02-13T07:22:52;99593.22;;;-1.21;84.72
74675;BME280;63200;48.810;12.352;2023-02-13T07:25:18;99590.63;;;-1.05;84.78
74675;BME280;63200;48.810;12.352;2023-02-13T07:27:44;99564.69;;;-1.47;84.45
74675;BME280;63200;48.810;12.352;2023-02-13T07:30:10;99573.16;;;-1.33;84.58
74675;BME280;63200;48.810;12.352;2023-02-13T07:32:35;99605.84;;;-0.97;84.57
74675;BME280;63200;48.810;12.352;2023-02-13T07:35:00;99569.78;;;-1.09;84.64
74675;BME280;63200;48.810;12.352;2023-02-13T07:37:27;99605.56;;;-0.94;84.54
74675;BME280;63200;48.810;12.352;2023-02-13T07:39:53;99553.47;;;-1.32;84.26
74675;BME280;63200;48.810;12.352;2023-02-13T07:42:18;99600.78;;;-1.08;84.31
74675;BME280;63200;48.810;12.352;2023-02-13T07:44:43;99592.09;;;-1.10;84.21
74675;BME280;63200;48.810;12.352;2023-02-13T07:47:08;99592.28;;;-1.12;84.13
74675;BME280;63200;48.810;12.352;2023-02-13T07:49:34;99589.47;;;-1.02;84.06
74675;BME280;63200;48.810;12.352;2023-02-13T07:52:01;99523.88;;;-1.29;84.12
74675;BME280;63200;48.810;12.352;2023-02-13T07:54:26;99555.84;;;-1.03;84.00
74675;BME280;63200;48.810;12.352;2023-02-13T07:56:51;99580.81;;;-0.78;83.71
74675;BME280;63200;48.810;12.352;2023-02-13T07:59:17;99593.00;;;-0.75;83.67
74675;BME280;63200;48.810;12.352;2023-02-13T08:01:42;99588.59;;;-0.85;83.64
74675;BME280;63200;48.810;12.352;2023-02-13T08:04:07;99552.06;;;-0.92;83.47
74675;BME280;63200;48.810;12.352;2023-02-13T08:06:33;99571.28;;;-0.80;83.32
74675;BME280;63200;48.810;12.352;2023-02-13T08:08:58;99592.69;;;-0.64;83.39
74675;BME280;63200;48.810;12.352;2023-02-13T08:11:42;99570.75;;;-0.84;83.18
74675;BME280;63200;48.810;12.352;2023-02-13T08:14:21;99591.53;;;-0.61;83.06
74675;BME280;63200;48.810;12.352;2023-02-13T08:16:47;99601.16;;;-0.42;83.00
74675;BME280;63200;48.810;12.352;2023-02-13T08:19:12;99597.16;;;-0.38;82.39
74675;BME280;63200;48.810;12.352;2023-02-13T08:21:37;99599.31;;;-0.34;82.39
74675;BME280;63200;48.810;12.352;2023-02-13T08:24:05;99576.63;;;-0.38;82.13
74675;BME280;63200;48.810;12.352;2023-02-13T08:26:30;99588.78;;;-0.43;81.90
74675;BME280;63200;48.810;12.352;2023-02-13T08:28:56;99595.47;;;-0.39;82.05
74675;BME280;63200;48.810;12.352;2023-02-13T08:31:21;99569.56;;;-0.55;81.96
74675;BME280;63200;48.810;12.352;2023-02-13T08:33:46;99598.47;;;-0.42;82.04
74675;BME280;63200;48.810;12.352;2023-02-13T08:36:11;99574.72;;;-0.62;81.68
74675;BME280;63200;48.810;12.352;2023-02-13T08:38:37;99598.50;;;-0.34;81.34
74675;BME280;63200;48.810;12.352;2023-02-13T08:41:02;99580.28;;;-0.39;81.57
74675;BME280;63200;48.810;12.352;2023-02-13T08:43:27;99594.13;;;-0.43;81.23
74675;BME280;63200;48.810;12.352;2023-02-13T08:45:53;99571.38;;;-0.56;81.24
74675;BME280;63200;48.810;12.352;2023-02-13T08:48:18;99586.41;;;-0.55;81.46
74675;BME280;63200;48.810;12.352;2023-02-13T08:50:43;99570.22;;;-0.53;81.23
74675;BME280;63200;48.810;12.352;2023-02-13T08:53:09;99589.19;;;-0.13;81.24
74675;BME280;63200;48.810;12.352;2023-02-13T08:55:34;99591.59;;;0.06;81.07
74675;BME280;63200;48.810;12.352;2023-02-13T08:58:00;99565.31;;;-0.23;79.73
74675;BME280;63200;48.810;12.352;2023-02-13T09:00:26;99599.97;;;0.28;79.73
74675;BME280;63200;48.810;12.352;2023-02-13T09:02:51;99594.47;;;0.29;79.47
74675;BME280;63200;48.810;12.352;2023-02-13T09:05:17;99588.09;;;0.14;79.05
74675;BME280;63200;48.810;12.352;2023-02-13T09:07:42;99574.06;;;0.12;79.12
74675;BME280;63200;48.810;12.352;2023-02-13T09:10:08;99601.66;;;0.54;79.15
74675;BME280;63200;48.810;12.352;2023-02-13T09:12:34;99573.91;;;0.13;78.48
74675;BME280;63200;48.810;12.352;2023-02-13T09:14:59;99610.31;;;0.23;78.09
74675;BME280;63200;48.810;12.352;2023-02-13T09:17:24;99616.31;;;0.33;79.01
74675;BME280;63200;48.810;12.352;2023-02-13T09:19:49;99614.97;;;0.04;78.92
74675;BME280;63200;48.810;12.352;2023-02-13T09:22:15;99618.63;;;0.03;79.30
74675;BME280;63200;48.810;12.352;2023-02-13T09:24:41;99617.34;;;0.40;79.39
74675;BME280;63200;48.810;12.352;2023-02-13T09:27:07;99613.63;;;0.08;78.91
74675;BME280;63200;48.810;12.352;2023-02-13T09:29:33;99616.34;;;0.49;78.73
74675;BME280;63200;48.810;12.352;2023-02-13T09:31:58;99592.78;;;0.70;78.42
74675;BME280;63200;48.810;12.352;2023-02-13T09:34:24;99571.22;;;0.79;77.97
74675;BME280;63200;48.810;12.352;2023-02-13T09:36:53;99578.41;;;0.54;77.20
74675;BME280;63200;48.810;12.352;2023-02-13T09:39:18;99621.38;;;0.77;77.35
74675;BME280;63200;48.810;12.352;2023-02-13T09:41:46;99615.50;;;0.90;77.71
74675;BME280;63200;48.810;12.352;2023-02-13T09:44:27;99619.31;;;1.04;77.45
74675;BME280;63200;48.810;12.352;2023-02-13T09:47:17;99578.06;;;0.90;77.21
74675;BME280;63200;48.810;12.352;2023-02-13T09:49:48;99611.91;;;1.31;77.01
74675;BME280;63200;48.810;12.352;2023-02-13T09:52:15;99565.38;;;0.84;76.47
74675;BME280;63200;48.810;12.352;2023-02-13T09:54:40;99575.38;;;0.82;76.47
74675;BME280;63200;48.810;12.352;2023-02-13T10:03:16;99609.44;;;1.13;77.46
74675;BME280;63200;48.810;12.352;2023-02-13T10:06:09;99592.53;;;1.21;77.12
74675;BME280;63200;48.810;12.352;2023-02-13T10:14:15;99620.03;;;1.94;75.56
74675;BME280;63200;48.810;12.352;2023-02-13T10:16:52;99615.22;;;2.12;74.72
74675;BME280;63200;48.810;12.352;2023-02-13T10:22:04;99622.03;;;2.23;73.95
74675;BME280;63200;48.810;12.352;2023-02-13T10:24:39;99614.78;;;2.00;74.11
74675;BME280;63200;48.810;12.352;2023-02-13T10:27:22;99619.66;;;1.97;75.08
74675;BME280;63200;48.810;12.352;2023-02-13T10:29:55;99612.06;;;2.09;74.66
74675;BME280;63200;48.810;12.352;2023-02-13T10:37:41;99613.78;;;2.33;73.16
74675;BME280;63200;48.810;12.352;2023-02-13T10:40:09;99608.34;;;2.41;73.01
74675;BME280;63200;48.810;12.352;2023-02-13T10:42:44;99571.09;;;2.23;73.41
74675;BME280;63200;48.810;12.352;2023-02-13T10:48:01;99587.38;;;2.45;73.14
74675;BME280;63200;48.810;12.352;2023-02-13T11:04:08;99590.00;;;2.91;71.49
74675;BME280;63200;48.810;12.352;2023-02-13T11:06:35;99573.22;;;2.89;71.87
74675;BME280;63200;48.810;12.352;2023-02-13T11:09:04;99591.59;;;3.15;71.35
74675;BME280;63200;48.810;12.352;2023-02-13T11:11:33;99582.63;;;3.23;71.07
74675;BME280;63200;48.810;12.352;2023-02-13T11:14:22;99588.72;;;3.47;70.67
74675;BME280;63200;48.810;12.352;2023-02-13T11:17:11;99596.28;;;3.58;70.69
74675;BME280;63200;48.810;12.352;2023-02-13T11:19:52;99600.81;;;3.73;69.98
74675;BME280;63200;48.810;12.352;2023-02-13T11:22:44;99598.13;;;3.73;70.51
74675;BME280;63200;48.810;12.352;2023-02-13T11:25:22;99599.06;;;3.65;70.20
74675;BME280;63200;48.810;12.352;2023-02-13T11:27:49;99599.97;;;3.87;69.98
74675;BME280;63200;48.810;12.352;2023-02-13T11:30:32;99573.84;;;3.81;70.09
74675;BME280;63200;48.810;12.352;2023-02-13T11:33:04;99592.81;;;3.94;69.46
74675;BME280;63200;48.810;12.352;2023-02-13T11:35:32;99597.78;;;3.76;69.88
74675;BME280;63200;48.810;12.352;2023-02-13T11:40:43;99585.25;;;3.83;70.09
74675;BME280;63200;48.810;12.352;2023-02-13T11:45:42;99572.03;;;4.03;68.27
74675;BME280;63200;48.810;12.352;2023-02-13T11:48:08;99591.94;;;4.52;68.31
74675;BME280;63200;48.810;12.352;2023-02-13T11:50:50;99552.50;;;4.38;65.87
74675;BME280;63200;48.810;12.352;2023-02-13T11:53:19;99595.56;;;4.59;67.47
74675;BME280;63200;48.810;12.352;2023-02-13T11:56:10;99584.47;;;4.47;67.27
74675;BME280;63200;48.810;12.352;2023-02-13T11:58:36;99583.44;;;4.70;67.34
74675;BME280;63200;48.810;12.352;2023-02-13T12:01:25;99574.13;;;5.01;66.58
74675;BME280;63200;48.810;12.352;2023-02-13T12:04:13;99584.69;;;5.31;64.97
74675;BME280;63200;48.810;12.352;2023-02-13T12:09:23;99557.34;;;5.34;64.33
74675;BME280;63200;48.810;12.352;2023-02-13T12:11:50;99577.09;;;5.41;64.64
74675;BME280;63200;48.810;12.352;2023-02-13T12:14:22;99572.75;;;5.47;65.49
74675;BME280;63200;48.810;12.352;2023-02-13T12:17:02;99577.78;;;5.63;66.14
74675;BME280;63200;48.810;12.352;2023-02-13T12:19:36;99586.91;;;5.56;65.45
74675;BME280;63200;48.810;12.352;2023-02-13T12:35:46;99548.44;;;5.33;65.48
74675;BME280;63200;48.810;12.352;2023-02-13T12:38:27;99563.53;;;5.28;66.29
74675;BME280;63200;48.810;12.352;2023-02-13T12:41:40;99562.72;;;5.34;65.81
74675;BME280;63200;48.810;12.352;2023-02-13T12:47:09;99551.47;;;5.65;64.71
74675;BME280;63200;48.810;12.352;2023-02-13T12:52:39;99551.34;;;5.32;66.50
74675;BME280;63200;48.810;12.352;2023-02-13T12:55:18;99545.88;;;5.67;66.18
74675;BME280;63200;48.810;12.352;2023-02-13T12:58:12;99529.09;;;5.65;64.96
74675;BME280;63200;48.810;12.352;2023-02-13T13:00:52;99534.84;;;5.55;65.94
74675;BME280;63200;48.810;12.352;2023-02-13T13:03:56;99529.66;;;5.47;66.63
74675;BME280;63200;48.810;12.352;2023-02-13T13:09:32;99520.78;;;6.69;63.56
74675;BME280;63200;48.810;12.352;2023-02-13T13:12:29;99527.41;;;6.59;62.77
74675;BME280;63200;48.810;12.352;2023-02-13T13:17:52;99526.78;;;6.37;63.70
74675;BME280;63200;48.810;12.352;2023-02-13T13:20:51;99522.41;;;6.29;64.33
74675;BME280;63200;48.810;12.352;2023-02-13T13:23:31;99523.84;;;6.12;63.92
74675;BME280;63200;48.810;12.352;2023-02-13T13:26:53;99520.34;;;6.11;65.02
74675;BME280;63200;48.810;12.352;2023-02-13T13:29:04;99520.34;;;6.31;64.44
74675;BME280;63200;48.810;12.352;2023-02-13T13:31:33;99516.59;;;6.12;64.83
74675;BME280;63200;48.810;12.352;2023-02-13T13:34:05;99511.38;;;6.04;64.71
74675;BME280;63200;48.810;12.352;2023-02-13T13:37:07;99517.63;;;6.11;64.72
74675;BME280;63200;48.810;12.352;2023-02-13T13:42:38;99517.03;;;6.43;64.37
74675;BME280;63200;48.810;12.352;2023-02-13T13:50:21;99510.13;;;6.00;65.59
74675;BME280;63200;48.810;12.352;2023-02-13T13:53:07;99519.50;;;6.17;65.35
74675;BME280;63200;48.810;12.352;2023-02-13T13:58:37;99524.81;;;5.91;65.51
74675;BME280;63200;48.810;12.352;2023-02-13T14:01:29;99523.38;;;5.95;65.48
74675;BME280;63200;48.810;12.352;2023-02-13T14:04:03;99504.03;;;5.71;66.36
74675;BME280;63200;48.810;12.352;2023-02-13T14:11:50;99507.28;;;5.53;66.52
74675;BME280;63200;48.810;12.352;2023-02-13T14:16:54;99485.66;;;4.91;68.60
74675;BME280;63200;48.810;12.352;2023-02-13T14:24:56;99503.31;;;5.00;68.96
74675;BME280;63200;48.810;12.352;2023-02-13T14:27:24;99508.56;;;5.15;68.32
74675;BME280;63200;48.810;12.352;2023-02-13T14:29:51;99508.75;;;5.14;68.11
74675;BME280;63200;48.810;12.352;2023-02-13T14:32:31;99507.66;;;5.02;68.38
74675;BME280;63200;48.810;12.352;2023-02-13T14:35:00;99465.88;;;4.42;69.83
74675;BME280;63200;48.810;12.352;2023-02-13T14:37:36;99507.63;;;4.66;69.86
74675;BME280;63200;48.810;12.352;2023-02-13T14:42:43;99497.91;;;4.37;71.08
74675;BME280;63200;48.810;12.352;2023-02-13T14:45:14;99496.88;;;4.38;70.69
74675;BME280;63200;48.810;12.352;2023-02-13T14:47:46;99497.50;;;4.40;70.93
74675;BME280;63200;48.810;12.352;2023-02-13T14:50:25;99494.75;;;4.33;71.16
74675;BME280;63200;48.810;12.352;2023-02-13T14:52:53;99489.28;;;4.48;70.22
74675;BME280;63200;48.810;12.352;2023-02-13T14:55:36;99485.47;;;4.36;70.80
74675;BME280;63200;48.810;12.352;2023-02-13T14:58:18;99502.50;;;4.22;71.27
74675;BME280;63200;48.810;12.352;2023-02-13T15:00:59;99437.72;;;3.66;71.87
74675;BME280;63200;48.810;12.352;2023-02-13T15:06:04;99448.88;;;3.70;72.47
74675;BME280;63200;48.810;12.352;2023-02-13T15:08:40;99442.63;;;3.63;72.21
74675;BME280;63200;48.810;12.352;2023-02-13T15:11:06;99500.47;;;4.02;72.43
74675;BME280;63200;48.810;12.352;2023-02-13T15:13:52;99491.00;;;4.06;72.31
74675;BME280;63200;48.810;12.352;2023-02-13T15:16:17;99499.91;;;4.07;72.52
74675;BME280;63200;48.810;12.352;2023-02-13T15:18:48;99465.28;;;3.97;71.52
74675;BME280;63200;48.810;12.352;2023-02-13T15:21:19;99482.75;;;4.08;72.14
74675;BME280;63200;48.810;12.352;2023-02-13T15:23:48;99485.00;;;4.04;71.80